Time;durP1;ratioP1;P1;durP2;ratioP2;P2;SDS_P1;SDS_P2;PMS_P1;PMS_P2;Temp;Humidity;BMP_temperature;BMP_pressure;BME280_temperature;BME280_humidity;BME280_pressure;Samples;Min_cycle;Max_cycle;Signal;HPM_P1;HPM_P2
2022/07/22 00:01:48;;;;;;;4.22;4.03;;;;;;;;;;1894755;75;26200;-89
2022/07/22 00:04:16;;;;;;;4.35;4.10;;;;;;;;;;1876558;76;26627;-89
2022/07/22 00:06:43;;;;;;;4.20;4.00;;;;;;;;;;1895275;75;26203;-88
2022/07/22 00:09:11;;;;;;;4.20;4.00;;;;;;;;;;1896457;75;26218;-87
2022/07/22 00:11:38;;;;;;;4.35;4.15;;;;;;;;;;1890900;76;26262;-88
2022/07/22 00:14:05;;;;;;;4.40;4.10;;;;;;;;;;1868714;76;26252;-88
2022/07/22 00:16:33;;;;;;;4.00;3.80;;;;;;;;;;1879312;75;26692;-88
2022/07/22 00:19:00;;;;;;;4.30;4.10;;;;;;;;;;1898232;75;26241;-88
2022/07/22 00:21:27;;;;;;;4.17;3.98;;;;;;;;;;1867822;75;26219;-87
2022/07/22 00:23:55;;;;;;;4.35;4.15;;;;;;;;;;1895935;76;26812;-88
2022/07/22 00:26:24;;;;;;;4.20;4.00;;;;;;;;;;1888871;75;26196;-87
2022/07/22 00:28:51;;;;;;;4.37;4.17;;;;;;;;;;1883247;75;26718;-88
2022/07/22 00:31:18;;;;;;;4.30;4.10;;;;;;;;;;1890147;76;26210;-88
2022/07/22 00:33:45;;;;;;;4.20;3.90;;;;;;;;;;1883407;75;26188;-87
2022/07/22 00:36:13;;;;;;;4.72;4.42;;;;;;;;;;1889660;76;26284;-88
2022/07/22 00:38:40;;;;;;;4.40;4.10;;;;;;;;;;1865712;76;26230;-88
2022/07/22 00:41:07;;;;;;;4.20;4.00;;;;;;;;;;1887909;75;26239;-88
2022/07/22 00:43:55;;;;;;;4.33;4.12;;;;;;;;;;1883549;75;26184;-87
2022/07/22 00:46:22;;;;;;;4.30;4.10;;;;;;;;;;1885854;76;26190;-86
2022/07/22 00:48:49;;;;;;;4.65;4.35;;;;;;;;;;1901689;74;26193;-86
2022/07/22 00:51:17;;;;;;;4.28;4.00;;;;;;;;;;1885141;73;26290;-87
2022/07/22 00:53:45;;;;;;;4.22;4.00;;;;;;;;;;1887296;73;26225;-86
2022/07/22 00:56:13;;;;;;;4.40;4.17;;;;;;;;;;1879251;73;26334;-87
2022/07/22 00:58:41;;;;;;;4.25;4.00;;;;;;;;;;1892165;73;26217;-87
2022/07/22 01:01:09;;;;;;;4.10;3.90;;;;;;;;;;1889816;75;26210;-89
2022/07/22 01:03:36;;;;;;;4.55;4.25;;;;;;;;;;1889345;76;27246;-88
2022/07/22 01:06:04;;;;;;;4.12;3.92;;;;;;;;;;1891213;75;26199;-90
2022/07/22 01:08:33;;;;;;;4.30;4.10;;;;;;;;;;1895868;75;26600;-90
2022/07/22 01:11:10;;;;;;;4.60;4.33;;;;;;;;;;1893143;76;26580;-90
2022/07/22 01:13:38;;;;;;;4.37;4.17;;;;;;;;;;1896224;75;26592;-87
2022/07/22 01:16:05;;;;;;;4.85;4.55;;;;;;;;;;1890636;75;26230;-88
2022/07/22 01:18:32;;;;;;;4.30;4.10;;;;;;;;;;1882290;75;26754;-87
2022/07/22 01:21:00;;;;;;;4.33;4.12;;;;;;;;;;1894260;75;26253;-88
2022/07/22 01:23:27;;;;;;;4.60;4.30;;;;;;;;;;1884253;75;26608;-85
2022/07/22 01:25:55;;;;;;;4.25;4.05;;;;;;;;;;1884206;76;26408;-89
2022/07/22 01:28:22;;;;;;;4.22;4.03;;;;;;;;;;1894454;75;26196;-90
2022/07/22 01:30:52;;;;;;;4.12;3.92;;;;;;;;;;1891606;75;26196;-88
2022/07/22 01:33:20;;;;;;;4.62;4.33;;;;;;;;;;1874625;75;26665;-88
2022/07/22 01:35:47;;;;;;;4.80;4.50;;;;;;;;;;1883586;75;26772;-87
2022/07/22 01:38:15;;;;;;;4.03;3.83;;;;;;;;;;1884975;75;26160;-88
2022/07/22 01:40:43;;;;;;;4.55;4.25;;;;;;;;;;1891232;75;26619;-87
2022/07/22 01:43:11;;;;;;;4.12;3.92;;;;;;;;;;1882376;75;26290;-87
2022/07/22 01:45:38;;;;;;;3.98;3.77;;;;;;;;;;1878161;76;26249;-88
2022/07/22 01:48:05;;;;;;;4.25;4.05;;;;;;;;;;1866094;75;26206;-88
2022/07/22 01:50:33;;;;;;;4.25;4.05;;;;;;;;;;1881528;75;26730;-88
2022/07/22 01:53:00;;;;;;;4.40;4.15;;;;;;;;;;1889123;75;26191;-87
2022/07/22 01:55:27;;;;;;;4.40;4.12;;;;;;;;;;1877144;75;27075;-89
2022/07/22 01:57:54;;;;;;;4.10;3.90;;;;;;;;;;1886867;75;26713;-88
2022/07/22 02:00:22;;;;;;;4.40;4.20;;;;;;;;;;1870874;75;26622;-88
2022/07/22 02:02:49;;;;;;;4.12;3.92;;;;;;;;;;1892975;75;26200;-87
2022/07/22 02:05:16;;;;;;;4.28;3.98;;;;;;;;;;1881391;74;26210;-87
2022/07/22 02:07:44;;;;;;;4.20;4.00;;;;;;;;;;1891617;76;26266;-89
2022/07/22 02:10:11;;;;;;;4.33;4.08;;;;;;;;;;1875967;75;26236;-88
2022/07/22 02:12:38;;;;;;;4.33;4.03;;;;;;;;;;1894671;75;26612;-87
2022/07/22 02:15:06;;;;;;;4.40;4.20;;;;;;;;;;1896207;75;26180;-88
2022/07/22 02:17:34;;;;;;;4.22;4.03;;;;;;;;;;1897077;74;26196;-87
2022/07/22 02:20:02;;;;;;;4.30;4.00;;;;;;;;;;1889839;75;26838;-89
2022/07/22 02:22:29;;;;;;;4.65;4.35;;;;;;;;;;1872778;75;26600;-88
2022/07/22 02:24:56;;;;;;;4.00;3.80;;;;;;;;;;1871040;75;26203;-88
2022/07/22 02:27:24;;;;;;;4.10;3.90;;;;;;;;;;1882321;75;26277;-88
2022/07/22 02:29:51;;;;;;;4.25;4.03;;;;;;;;;;1892808;75;26196;-89
2022/07/22 02:32:18;;;;;;;4.50;4.22;;;;;;;;;;1875181;74;26192;-88
2022/07/22 02:34:45;;;;;;;4.55;4.33;;;;;;;;;;1883606;75;26196;-88
2022/07/22 02:37:13;;;;;;;4.28;4.08;;;;;;;;;;1890253;75;26269;-87
2022/07/22 02:39:40;;;;;;;4.45;4.22;;;;;;;;;;1880218;74;26589;-87
2022/07/22 02:42:07;;;;;;;4.83;4.42;;;;;;;;;;1876931;75;26222;-88
2022/07/22 02:44:34;;;;;;;4.08;3.87;;;;;;;;;;1886949;75;26156;-89
2022/07/22 02:47:02;;;;;;;4.10;3.90;;;;;;;;;;1881265;75;26220;-89
2022/07/22 02:49:29;;;;;;;4.28;4.08;;;;;;;;;;1876188;75;26194;-88
2022/07/22 02:51:56;;;;;;;3.98;3.77;;;;;;;;;;1896344;75;26246;-88
2022/07/22 02:54:24;;;;;;;4.40;4.10;;;;;;;;;;1881116;75;26264;-89
2022/07/22 02:56:51;;;;;;;4.47;4.28;;;;;;;;;;1894797;75;26196;-89
2022/07/22 02:59:18;;;;;;;4.15;3.95;;;;;;;;;;1879840;76;26222;-89
2022/07/22 03:01:46;;;;;;;4.37;4.17;;;;;;;;;;1876602;75;26204;-89
2022/07/22 03:04:13;;;;;;;4.47;4.20;;;;;;;;;;1891403;74;26297;-88
2022/07/22 03:06:40;;;;;;;4.42;4.12;;;;;;;;;;1870982;75;26246;-89
2022/07/22 03:09:07;;;;;;;4.70;4.40;;;;;;;;;;1881519;75;26215;-89
2022/07/22 03:11:35;;;;;;;4.15;3.95;;;;;;;;;;1882570;76;26198;-88
2022/07/22 03:14:02;;;;;;;4.08;3.87;;;;;;;;;;1878950;75;26272;-89
2022/07/22 03:16:29;;;;;;;4.37;4.12;;;;;;;;;;1873328;74;26168;-89
2022/07/22 03:18:56;;;;;;;4.28;4.03;;;;;;;;;;1878204;75;26191;-88
2022/07/22 03:21:24;;;;;;;4.15;3.95;;;;;;;;;;1881995;74;26631;-88
2022/07/22 03:23:53;;;;;;;4.28;4.08;;;;;;;;;;1873487;75;26222;-88
2022/07/22 03:26:21;;;;;;;3.83;3.62;;;;;;;;;;1863044;75;26608;-87
2022/07/22 03:28:48;;;;;;;4.45;4.17;;;;;;;;;;1876823;75;26281;-88
2022/07/22 03:31:15;;;;;;;4.35;4.15;;;;;;;;;;1876093;75;26323;-87
2022/07/22 03:33:43;;;;;;;4.50;4.20;;;;;;;;;;1871184;75;26260;-88
2022/07/22 03:36:10;;;;;;;4.17;3.98;;;;;;;;;;1885510;74;26258;-88
2022/07/22 03:38:37;;;;;;;4.10;3.90;;;;;;;;;;1867573;75;26600;-88
2022/07/22 03:41:05;;;;;;;4.28;4.08;;;;;;;;;;1877512;75;26246;-88
2022/07/22 03:43:32;;;;;;;4.03;3.83;;;;;;;;;;1885733;75;26187;-88
2022/07/22 03:45:59;;;;;;;4.10;3.90;;;;;;;;;;1872977;75;27026;-89
2022/07/22 03:48:27;;;;;;;4.37;4.17;;;;;;;;;;1883465;74;27013;-87
2022/07/22 03:50:54;;;;;;;3.80;3.60;;;;;;;;;;1884601;76;26191;-88
2022/07/22 03:53:21;;;;;;;4.22;4.03;;;;;;;;;;1892807;75;26200;-88
2022/07/22 03:55:48;;;;;;;4.30;4.00;;;;;;;;;;1879753;75;26319;-88
2022/07/22 03:58:17;;;;;;;4.67;4.37;;;;;;;;;;1880305;75;26226;-87
2022/07/22 04:00:45;;;;;;;4.37;4.17;;;;;;;;;;1875240;75;26215;-87
2022/07/22 04:03:12;;;;;;;4.80;4.50;;;;;;;;;;1892575;75;26223;-88
2022/07/22 04:05:39;;;;;;;4.45;4.15;;;;;;;;;;1893949;75;26610;-88
2022/07/22 04:08:06;;;;;;;4.83;4.53;;;;;;;;;;1885458;75;26676;-88
2022/07/22 04:10:34;;;;;;;4.60;4.30;;;;;;;;;;1888546;75;26241;-89
2022/07/22 04:13:01;;;;;;;4.35;4.15;;;;;;;;;;1893261;76;26262;-88
2022/07/22 04:15:28;;;;;;;4.47;4.28;;;;;;;;;;1874388;75;26171;-89
2022/07/22 04:17:55;;;;;;;4.28;4.08;;;;;;;;;;1868776;76;26198;-87
2022/07/22 04:20:23;;;;;;;4.47;4.17;;;;;;;;;;1886335;75;26694;-89
2022/07/22 04:22:50;;;;;;;4.28;4.08;;;;;;;;;;1886015;75;26203;-88
2022/07/22 04:25:18;;;;;;;4.30;4.10;;;;;;;;;;1894927;75;26160;-85
2022/07/22 04:27:45;;;;;;;4.30;4.10;;;;;;;;;;1871152;75;26214;-87
2022/07/22 04:30:12;;;;;;;4.28;4.08;;;;;;;;;;1874381;75;26324;-89
2022/07/22 04:32:40;;;;;;;4.35;4.10;;;;;;;;;;1869627;76;26179;-88
2022/07/22 04:35:07;;;;;;;4.25;4.05;;;;;;;;;;1896894;75;26203;-88
2022/07/22 04:37:35;;;;;;;4.20;4.00;;;;;;;;;;1868847;75;26685;-88
2022/07/22 04:40:02;;;;;;;4.20;4.00;;;;;;;;;;1879896;75;26203;-89
2022/07/22 04:42:29;;;;;;;4.30;4.10;;;;;;;;;;1884420;75;26267;-87
2022/07/22 04:44:56;;;;;;;4.40;4.10;;;;;;;;;;1867436;75;26278;-88
2022/07/22 04:47:24;;;;;;;4.10;3.90;;;;;;;;;;1888145;75;26673;-88
2022/07/22 04:49:51;;;;;;;4.40;4.20;;;;;;;;;;1899026;75;26266;-88
2022/07/22 04:52:18;;;;;;;4.42;4.20;;;;;;;;;;1897341;75;26163;-88
2022/07/22 04:54:46;;;;;;;4.72;4.42;;;;;;;;;;1895082;75;26242;-88
2022/07/22 04:57:13;;;;;;;4.30;4.10;;;;;;;;;;1862658;76;26252;-87
2022/07/22 04:59:40;;;;;;;4.20;4.00;;;;;;;;;;1886864;75;26304;-88
2022/07/22 05:02:08;;;;;;;4.25;4.05;;;;;;;;;;1873304;76;26273;-88
2022/07/22 05:04:35;;;;;;;4.40;4.17;;;;;;;;;;1879012;75;26707;-88
2022/07/22 05:07:02;;;;;;;4.20;4.00;;;;;;;;;;1881818;75;26278;-87
2022/07/22 05:09:30;;;;;;;4.35;4.10;;;;;;;;;;1883321;76;26190;-87
2022/07/22 05:11:57;;;;;;;4.70;4.40;;;;;;;;;;1895002;76;26289;-88
2022/07/22 05:14:24;;;;;;;4.75;4.45;;;;;;;;;;1897007;76;26196;-87
2022/07/22 05:16:52;;;;;;;4.50;4.28;;;;;;;;;;1877029;76;26291;-88
2022/07/22 05:19:19;;;;;;;4.40;4.15;;;;;;;;;;1872455;75;26222;-87
2022/07/22 05:21:46;;;;;;;4.40;4.20;;;;;;;;;;1879050;74;26288;-88
2022/07/22 05:24:14;;;;;;;4.22;4.03;;;;;;;;;;1873796;75;26284;-86
2022/07/22 05:26:41;;;;;;;4.37;4.08;;;;;;;;;;1879471;74;26281;-87
2022/07/22 05:29:09;;;;;;;4.45;4.15;;;;;;;;;;1882696;75;26199;-88
2022/07/22 05:31:36;;;;;;;4.12;3.92;;;;;;;;;;1868387;75;26747;-87
2022/07/22 05:34:03;;;;;;;4.22;4.03;;;;;;;;;;1894360;75;26949;-87
2022/07/22 05:36:30;;;;;;;4.50;4.20;;;;;;;;;;1867013;75;26686;-88
2022/07/22 05:38:58;;;;;;;4.12;3.92;;;;;;;;;;1896275;75;26959;-88
2022/07/22 05:41:25;;;;;;;4.60;4.30;;;;;;;;;;1874309;75;26241;-89
2022/07/22 05:43:52;;;;;;;4.50;4.20;;;;;;;;;;1892423;75;26284;-88
2022/07/22 05:46:20;;;;;;;4.55;4.28;;;;;;;;;;1901871;75;26254;-89
2022/07/22 05:48:47;;;;;;;4.60;4.30;;;;;;;;;;1885677;75;26255;-89
2022/07/22 05:51:14;;;;;;;4.70;4.40;;;;;;;;;;1871050;75;26195;-88
2022/07/22 05:53:42;;;;;;;4.45;4.25;;;;;;;;;;1878998;75;26164;-88
2022/07/22 05:56:11;;;;;;;4.55;4.35;;;;;;;;;;1871397;75;26210;-89
2022/07/22 05:58:39;;;;;;;4.40;4.20;;;;;;;;;;1878210;75;26170;-86
2022/07/22 06:01:06;;;;;;;4.28;4.08;;;;;;;;;;1869202;75;26257;-89
2022/07/22 06:03:33;;;;;;;4.58;4.30;;;;;;;;;;1894984;75;26265;-88
2022/07/22 06:06:02;;;;;;;4.33;4.08;;;;;;;;;;1888120;75;26188;-89
2022/07/22 06:08:29;;;;;;;4.42;4.17;;;;;;;;;;1870867;75;26184;-86
2022/07/22 06:10:57;;;;;;;3.95;3.75;;;;;;;;;;1868397;75;26230;-88
2022/07/22 06:13:24;;;;;;;4.60;4.30;;;;;;;;;;1888876;75;26273;-87
2022/07/22 06:15:52;;;;;;;4.53;4.22;;;;;;;;;;1887052;75;26212;-87
2022/07/22 06:18:19;;;;;;;4.20;4.00;;;;;;;;;;1881166;75;26224;-87
2022/07/22 06:20:46;;;;;;;4.75;4.45;;;;;;;;;;1896524;76;26281;-88
2022/07/22 06:23:13;;;;;;;4.65;4.35;;;;;;;;;;1890323;75;26670;-87
2022/07/22 06:25:42;;;;;;;4.62;4.33;;;;;;;;;;1883435;75;26183;-87
2022/07/22 06:28:09;;;;;;;4.50;4.20;;;;;;;;;;1879039;75;26265;-88
2022/07/22 06:30:37;;;;;;;4.83;4.53;;;;;;;;;;1868035;75;26627;-87
2022/07/22 06:33:04;;;;;;;4.33;4.12;;;;;;;;;;1874500;75;26242;-88
2022/07/22 06:35:31;;;;;;;4.60;4.30;;;;;;;;;;1869704;75;26203;-88
2022/07/22 06:37:59;;;;;;;4.15;3.95;;;;;;;;;;1878130;76;26720;-88
2022/07/22 06:40:26;;;;;;;4.50;4.20;;;;;;;;;;1891929;75;26696;-88
2022/07/22 06:42:53;;;;;;;4.80;4.50;;;;;;;;;;1866295;75;26268;-88
2022/07/22 06:45:20;;;;;;;4.47;4.17;;;;;;;;;;1885597;75;26295;-89
2022/07/22 06:47:48;;;;;;;4.42;4.22;;;;;;;;;;1883145;76;26195;-88
2022/07/22 06:50:15;;;;;;;4.65;4.35;;;;;;;;;;1876731;75;26946;-88
2022/07/22 06:52:43;;;;;;;4.55;4.28;;;;;;;;;;1893426;75;26267;-87
2022/07/22 06:55:10;;;;;;;4.37;4.17;;;;;;;;;;1887352;75;26192;-89
2022/07/22 06:57:38;;;;;;;4.37;4.12;;;;;;;;;;1886584;75;26256;-87
2022/07/22 07:00:07;;;;;;;4.80;4.50;;;;;;;;;;1883264;75;26184;-87
2022/07/22 07:02:34;;;;;;;4.40;4.20;;;;;;;;;;1889432;75;26188;-88
2022/07/22 07:05:02;;;;;;;4.80;4.50;;;;;;;;;;1877345;75;26698;-88
2022/07/22 07:07:29;;;;;;;4.70;4.40;;;;;;;;;;1869834;75;26171;-87
2022/07/22 07:09:56;;;;;;;4.50;4.20;;;;;;;;;;1884860;75;26211;-88
2022/07/22 07:12:23;;;;;;;4.47;4.28;;;;;;;;;;1878088;75;26595;-87
2022/07/22 07:14:51;;;;;;;4.60;4.30;;;;;;;;;;1871886;75;26290;-85
2022/07/22 07:17:18;;;;;;;4.60;4.30;;;;;;;;;;1885919;74;26233;-86
2022/07/22 07:19:45;;;;;;;4.72;4.42;;;;;;;;;;1884328;73;26219;-86
2022/07/22 07:22:12;;;;;;;5.00;4.60;;;;;;;;;;1889825;75;26275;-88
2022/07/22 07:24:40;;;;;;;4.62;4.33;;;;;;;;;;1880836;73;26215;-87
2022/07/22 07:27:07;;;;;;;4.58;4.28;;;;;;;;;;1860513;75;26200;-87
2022/07/22 07:29:34;;;;;;;4.65;4.35;;;;;;;;;;1891473;74;26185;-88
2022/07/22 07:32:02;;;;;;;4.85;4.55;;;;;;;;;;1881382;75;26233;-88
2022/07/22 07:34:29;;;;;;;4.70;4.40;;;;;;;;;;1886548;75;26236;-88
2022/07/22 07:36:57;;;;;;;4.78;4.47;;;;;;;;;;1871501;75;26279;-87
2022/07/22 07:39:25;;;;;;;4.25;4.05;;;;;;;;;;1883934;75;26231;-87
2022/07/22 07:41:52;;;;;;;4.22;4.03;;;;;;;;;;1882624;75;27065;-87
2022/07/22 07:44:19;;;;;;;4.90;4.60;;;;;;;;;;1880514;75;26174;-88
2022/07/22 07:46:47;;;;;;;4.30;4.10;;;;;;;;;;1891797;75;26237;-88
2022/07/22 07:49:14;;;;;;;4.55;4.25;;;;;;;;;;1876887;75;26600;-87
2022/07/22 07:51:42;;;;;;;4.37;4.17;;;;;;;;;;1882489;75;26256;-87
2022/07/22 07:54:09;;;;;;;4.45;4.25;;;;;;;;;;1876307;75;26249;-87
2022/07/22 07:56:36;;;;;;;4.33;4.12;;;;;;;;;;1887627;75;26672;-88
2022/07/22 07:59:04;;;;;;;4.30;4.10;;;;;;;;;;1896422;75;26266;-89
2022/07/22 08:01:31;;;;;;;4.78;4.47;;;;;;;;;;1887361;75;26206;-89
2022/07/22 08:03:58;;;;;;;4.30;4.00;;;;;;;;;;1881310;75;26739;-89
2022/07/22 08:06:25;;;;;;;4.67;4.37;;;;;;;;;;1874086;75;26210;-90
2022/07/22 08:08:53;;;;;;;4.83;4.53;;;;;;;;;;1875798;75;26222;-88
2022/07/22 08:11:20;;;;;;;4.60;4.30;;;;;;;;;;1869044;75;26236;-88
2022/07/22 08:13:47;;;;;;;4.83;4.53;;;;;;;;;;1879602;76;26198;-88
2022/07/22 08:16:15;;;;;;;4.65;4.35;;;;;;;;;;1894603;75;26229;-89
2022/07/22 08:18:42;;;;;;;4.95;4.65;;;;;;;;;;1905871;75;26152;-88
2022/07/22 08:21:09;;;;;;;4.70;4.40;;;;;;;;;;1886342;75;26182;-88
2022/07/22 08:23:37;;;;;;;4.80;4.50;;;;;;;;;;1888073;75;26168;-87
2022/07/22 08:26:04;;;;;;;4.40;4.10;;;;;;;;;;1874426;75;26631;-87
2022/07/22 08:28:32;;;;;;;4.70;4.40;;;;;;;;;;1885690;76;26239;-86
2022/07/22 08:30:59;;;;;;;4.55;4.25;;;;;;;;;;1882112;75;26282;-87
2022/07/22 08:33:26;;;;;;;4.87;4.58;;;;;;;;;;1891785;75;26630;-87
2022/07/22 08:35:53;;;;;;;4.75;4.45;;;;;;;;;;1878574;75;26285;-88
2022/07/22 08:38:21;;;;;;;4.80;4.50;;;;;;;;;;1889267;75;26169;-88
2022/07/22 08:40:50;;;;;;;4.90;4.60;;;;;;;;;;1882435;76;26213;-88
2022/07/22 08:43:17;;;;;;;4.40;4.20;;;;;;;;;;1886191;74;26215;-88
2022/07/22 08:45:45;;;;;;;4.28;4.08;;;;;;;;;;1887237;75;26178;-86
2022/07/22 08:48:12;;;;;;;4.78;4.47;;;;;;;;;;1886355;75;26581;-86
2022/07/22 08:50:39;;;;;;;4.85;4.55;;;;;;;;;;1895371;75;26168;-87
2022/07/22 08:53:14;;;;;;;4.80;4.50;;;;;;;;;;1872131;75;26752;-86
2022/07/22 08:55:43;;;;;;;4.45;4.22;;;;;;;;;;1868409;75;26593;-87
2022/07/22 08:58:10;;;;;;;4.67;4.37;;;;;;;;;;1894893;75;26616;-88
2022/07/22 09:00:39;;;;;;;4.28;3.98;;;;;;;;;;1893691;75;26589;-87
2022/07/22 09:03:27;;;;;;;4.55;4.25;;;;;;;;;;1873855;75;26192;-87
2022/07/22 09:05:55;;;;;;;4.30;4.10;;;;;;;;;;1874886;75;26218;-87
2022/07/22 09:08:22;;;;;;;4.17;3.98;;;;;;;;;;1897473;75;26192;-88
2022/07/22 09:10:49;;;;;;;4.15;3.90;;;;;;;;;;1896846;75;26188;-86
2022/07/22 09:13:18;;;;;;;4.70;4.40;;;;;;;;;;1870610;75;26179;-89
2022/07/22 09:15:49;;;;;;;4.65;4.35;;;;;;;;;;1887758;73;26222;-86
2022/07/22 09:18:17;;;;;;;4.58;4.28;;;;;;;;;;1896197;74;26242;-87
2022/07/22 09:20:44;;;;;;;4.30;4.05;;;;;;;;;;1893107;74;26585;-86
2022/07/22 09:23:13;;;;;;;4.58;4.28;;;;;;;;;;1894200;74;26180;-86
2022/07/22 09:25:41;;;;;;;4.22;3.95;;;;;;;;;;1888462;74;26241;-86
2022/07/22 09:28:09;;;;;;;4.22;4.00;;;;;;;;;;1878686;75;26207;-86
2022/07/22 09:30:40;;;;;;;4.08;3.87;;;;;;;;;;1895662;75;26204;-86
2022/07/22 09:33:08;;;;;;;4.10;3.90;;;;;;;;;;1881142;76;26165;-86
2022/07/22 09:35:35;;;;;;;4.28;4.03;;;;;;;;;;1884592;75;26156;-86
2022/07/22 09:38:05;;;;;;;4.15;3.95;;;;;;;;;;1880787;75;26285;-85
2022/07/22 09:40:34;;;;;;;4.42;4.12;;;;;;;;;;1885066;75;26180;-86
2022/07/22 09:43:03;;;;;;;4.00;3.80;;;;;;;;;;1859281;75;26187;-86
2022/07/22 09:45:31;;;;;;;4.05;3.85;;;;;;;;;;1865789;75;26999;-85
2022/07/22 09:48:00;;;;;;;4.35;4.10;;;;;;;;;;1888731;75;26190;-86
2022/07/22 09:50:28;;;;;;;4.15;3.95;;;;;;;;;;1892878;75;26223;-86
2022/07/22 09:52:56;;;;;;;4.08;3.87;;;;;;;;;;1895551;74;26234;-87
2022/07/22 09:55:24;;;;;;;3.77;3.58;;;;;;;;;;1890907;74;26188;-87
2022/07/22 09:57:53;;;;;;;4.00;3.80;;;;;;;;;;1875098;75;26221;-87
2022/07/22 10:00:22;;;;;;;4.00;3.80;;;;;;;;;;1885375;75;26263;-86
2022/07/22 10:02:57;;;;;;;3.98;3.77;;;;;;;;;;1869657;75;26683;-86
2022/07/22 10:05:25;;;;;;;4.20;4.00;;;;;;;;;;1891530;75;26191;-86
2022/07/22 10:07:54;;;;;;;4.03;3.83;;;;;;;;;;1895536;75;26225;-87
2022/07/22 10:10:22;;;;;;;3.77;3.58;;;;;;;;;;1875443;76;26190;-86
2022/07/22 10:12:50;;;;;;;3.85;3.65;;;;;;;;;;1874363;76;26191;-88
2022/07/22 10:15:18;;;;;;;4.10;3.90;;;;;;;;;;1887557;75;26656;-88
2022/07/22 10:17:52;;;;;;;4.08;3.87;;;;;;;;;;1872606;75;26207;-87
2022/07/22 10:20:19;;;;;;;4.35;4.15;;;;;;;;;;1884992;75;26669;-87
2022/07/22 10:22:57;;;;;;;3.90;3.70;;;;;;;;;;1892492;75;26250;-87
2022/07/22 10:25:26;;;;;;;3.98;3.77;;;;;;;;;;1887148;75;26179;-87
2022/07/22 10:28:03;;;;;;;3.80;3.60;;;;;;;;;;1874260;75;26231;-87
2022/07/22 10:30:33;;;;;;;4.03;3.83;;;;;;;;;;1892395;75;26640;-87
2022/07/22 10:33:05;;;;;;;3.70;3.50;;;;;;;;;;1889595;75;26191;-87
2022/07/22 10:35:33;;;;;;;3.67;3.47;;;;;;;;;;1887268;75;26168;-88
2022/07/22 10:38:01;;;;;;;3.90;3.70;;;;;;;;;;1880456;75;26198;-87
2022/07/22 10:40:33;;;;;;;4.10;3.90;;;;;;;;;;1892503;75;26232;-88
2022/07/22 10:43:05;;;;;;;3.90;3.70;;;;;;;;;;1877880;75;26635;-87
2022/07/22 10:45:34;;;;;;;3.55;3.45;;;;;;;;;;1874461;75;26270;-87
2022/07/22 10:48:05;;;;;;;3.90;3.70;;;;;;;;;;1892410;75;26231;-86
2022/07/22 10:50:37;;;;;;;3.72;3.52;;;;;;;;;;1887829;75;26685;-88
2022/07/22 10:53:11;;;;;;;3.95;3.75;;;;;;;;;;1879268;75;26351;-88
2022/07/22 10:55:39;;;;;;;4.20;3.90;;;;;;;;;;1884128;74;26624;-87
2022/07/22 10:58:24;;;;;;;4.28;4.08;;;;;;;;;;1894766;74;26231;-90
2022/07/22 11:00:51;;;;;;;3.80;3.60;;;;;;;;;;1894829;75;27164;-90
2022/07/22 11:03:25;;;;;;;3.90;3.70;;;;;;;;;;1879680;74;26603;-88
2022/07/22 11:05:52;;;;;;;4.03;3.83;;;;;;;;;;1895038;74;26624;-88
2022/07/22 11:08:20;;;;;;;4.05;3.85;;;;;;;;;;1883419;74;26701;-86
2022/07/22 11:10:50;;;;;;;4.25;3.95;;;;;;;;;;1880814;75;26199;-87
2022/07/22 11:13:36;;;;;;;4.03;3.83;;;;;;;;;;1875890;76;26754;-88
2022/07/22 11:16:20;;;;;;;4.58;4.28;;;;;;;;;;1867267;75;26607;-88
2022/07/22 11:18:48;;;;;;;3.67;3.47;;;;;;;;;;1876717;75;26682;-88
2022/07/22 11:21:17;;;;;;;3.95;3.75;;;;;;;;;;1895468;75;26258;-87
2022/07/22 11:23:44;;;;;;;4.03;3.83;;;;;;;;;;1883663;75;26342;-88
2022/07/22 11:26:13;;;;;;;4.00;3.80;;;;;;;;;;1862524;75;26596;-86
2022/07/22 11:28:41;;;;;;;4.15;3.95;;;;;;;;;;1882773;74;26906;-89
2022/07/22 11:31:09;;;;;;;4.33;4.03;;;;;;;;;;1889902;74;26212;-86
2022/07/22 11:33:37;;;;;;;4.42;4.12;;;;;;;;;;1889655;74;26252;-85
2022/07/22 11:36:05;;;;;;;4.10;3.80;;;;;;;;;;1883742;74;26831;-86
2022/07/22 11:38:52;;;;;;;4.37;4.08;;;;;;;;;;1890103;74;26246;-86
2022/07/22 11:41:19;;;;;;;4.37;4.08;;;;;;;;;;1887862;74;26340;-86
2022/07/22 11:43:48;;;;;;;4.33;4.03;;;;;;;;;;1889244;74;26248;-86
2022/07/22 11:46:16;;;;;;;3.77;3.58;;;;;;;;;;1891494;74;26163;-87
2022/07/22 11:48:44;;;;;;;4.20;4.00;;;;;;;;;;1887457;74;26215;-87
2022/07/22 11:51:14;;;;;;;4.00;3.80;;;;;;;;;;1885510;74;26235;-87
2022/07/22 11:53:41;;;;;;;4.50;4.20;;;;;;;;;;1866422;76;26599;-87
2022/07/22 11:56:09;;;;;;;4.15;3.95;;;;;;;;;;1886724;75;26203;-87
2022/07/22 11:58:38;;;;;;;4.15;3.95;;;;;;;;;;1883646;75;26652;-88
2022/07/22 12:01:06;;;;;;;4.22;3.92;;;;;;;;;;1892332;74;26180;-88
2022/07/22 12:03:35;;;;;;;4.28;4.05;;;;;;;;;;1894891;75;26270;-87
2022/07/22 12:06:04;;;;;;;4.12;3.92;;;;;;;;;;1875859;75;26269;-88
2022/07/22 12:08:32;;;;;;;4.20;4.00;;;;;;;;;;1895972;76;26609;-86
2022/07/22 12:11:00;;;;;;;4.22;3.92;;;;;;;;;;1878659;75;26242;-87
2022/07/22 12:13:31;;;;;;;4.37;4.08;;;;;;;;;;1870529;76;26257;-87
2022/07/22 12:15:58;;;;;;;4.45;4.15;;;;;;;;;;1865418;76;26191;-87
2022/07/22 12:18:27;;;;;;;4.25;4.05;;;;;;;;;;1876833;75;26160;-88
2022/07/22 12:20:55;;;;;;;4.22;3.92;;;;;;;;;;1874140;76;26211;-87
2022/07/22 12:23:23;;;;;;;4.20;3.90;;;;;;;;;;1895698;75;26192;-86
2022/07/22 12:25:51;;;;;;;4.35;4.05;;;;;;;;;;1895339;75;26201;-87
2022/07/22 12:28:19;;;;;;;4.30;4.00;;;;;;;;;;1888124;75;26253;-87
2022/07/22 12:30:46;;;;;;;3.85;3.65;;;;;;;;;;1879779;75;26228;-87
2022/07/22 12:33:15;;;;;;;4.33;4.03;;;;;;;;;;1871951;76;26197;-87
2022/07/22 12:35:43;;;;;;;4.60;4.30;;;;;;;;;;1876173;76;26165;-87
2022/07/22 12:38:11;;;;;;;4.60;4.20;;;;;;;;;;1893230;76;26253;-88
2022/07/22 12:40:39;;;;;;;4.37;4.12;;;;;;;;;;1872259;75;26191;-87
2022/07/22 12:43:09;;;;;;;4.53;4.22;;;;;;;;;;1876093;75;26211;-88
2022/07/22 12:45:38;;;;;;;4.47;4.08;;;;;;;;;;1886150;75;26256;-87
2022/07/22 12:48:09;;;;;;;4.15;3.92;;;;;;;;;;1887932;75;26613;-88
2022/07/22 12:50:43;;;;;;;4.08;3.77;;;;;;;;;;1878758;75;26202;-88
2022/07/22 12:53:14;;;;;;;4.17;3.90;;;;;;;;;;1868377;75;26206;-88
2022/07/22 12:55:46;;;;;;;4.08;3.80;;;;;;;;;;1865021;75;26179;-88
2022/07/22 12:58:14;;;;;;;4.53;4.22;;;;;;;;;;1873654;75;26223;-86
2022/07/22 13:00:42;;;;;;;4.33;4.03;;;;;;;;;;1881517;75;26236;-87
2022/07/22 13:03:10;;;;;;;3.70;3.50;;;;;;;;;;1893825;75;26199;-87
2022/07/22 13:05:37;;;;;;;4.08;3.77;;;;;;;;;;1885793;75;26286;-86
2022/07/22 13:08:05;;;;;;;3.90;3.70;;;;;;;;;;1879749;75;26208;-87
2022/07/22 13:10:32;;;;;;;4.05;3.85;;;;;;;;;;1895192;75;26272;-86
2022/07/22 13:12:59;;;;;;;4.22;3.92;;;;;;;;;;1897579;75;26648;-86
2022/07/22 13:15:26;;;;;;;3.92;3.70;;;;;;;;;;1897589;75;26230;-87
2022/07/22 13:17:54;;;;;;;3.83;3.62;;;;;;;;;;1891532;75;26263;-88
2022/07/22 13:20:21;;;;;;;4.15;3.85;;;;;;;;;;1885388;75;26219;-88
2022/07/22 13:22:48;;;;;;;4.30;4.00;;;;;;;;;;1876073;75;26594;-88
2022/07/22 13:25:16;;;;;;;3.60;3.40;;;;;;;;;;1873003;75;26589;-86
2022/07/22 13:27:43;;;;;;;4.20;3.90;;;;;;;;;;1878247;75;26294;-87
2022/07/22 13:30:11;;;;;;;4.05;3.80;;;;;;;;;;1883820;75;26281;-88
2022/07/22 13:32:38;;;;;;;3.90;3.70;;;;;;;;;;1875053;75;26219;-87
2022/07/22 13:35:05;;;;;;;3.80;3.60;;;;;;;;;;1892790;75;26621;-86
2022/07/22 13:37:35;;;;;;;3.40;3.20;;;;;;;;;;1877283;75;26169;-87
2022/07/22 13:40:02;;;;;;;3.90;3.60;;;;;;;;;;1872159;76;26221;-87
2022/07/22 13:42:29;;;;;;;3.77;3.58;;;;;;;;;;1878845;75;26622;-87
2022/07/22 13:44:57;;;;;;;3.55;3.35;;;;;;;;;;1882378;75;26733;-87
2022/07/22 13:47:26;;;;;;;4.10;3.80;;;;;;;;;;1894631;75;26678;-87
2022/07/22 13:49:54;;;;;;;3.62;3.42;;;;;;;;;;1902637;74;26227;-87
2022/07/22 13:52:21;;;;;;;3.60;3.40;;;;;;;;;;1884050;76;26580;-87
2022/07/22 13:54:49;;;;;;;4.20;3.90;;;;;;;;;;1888151;75;26172;-86
2022/07/22 13:57:17;;;;;;;3.55;3.35;;;;;;;;;;1884108;74;26412;-86
2022/07/22 13:59:45;;;;;;;3.40;3.20;;;;;;;;;;1892466;74;26248;-87
2022/07/22 14:02:12;;;;;;;3.80;3.60;;;;;;;;;;1888435;72;26240;-87
2022/07/22 14:04:39;;;;;;;3.52;3.33;;;;;;;;;;1892235;74;26222;-86
2022/07/22 14:07:07;;;;;;;3.42;3.22;;;;;;;;;;1892574;73;26263;-86
2022/07/22 14:09:34;;;;;;;3.70;3.47;;;;;;;;;;1877807;72;26289;-86
2022/07/22 14:12:01;;;;;;;3.62;3.40;;;;;;;;;;1879143;74;26169;-86
2022/07/22 14:14:29;;;;;;;3.33;3.12;;;;;;;;;;1876659;75;26236;-89
2022/07/22 14:16:56;;;;;;;3.20;3.08;;;;;;;;;;1890382;75;26269;-88
2022/07/22 14:19:23;;;;;;;3.45;3.25;;;;;;;;;;1884075;75;26773;-89
2022/07/22 14:21:50;;;;;;;3.65;3.45;;;;;;;;;;1891075;75;26781;-89
2022/07/22 14:24:18;;;;;;;3.65;3.45;;;;;;;;;;1886338;75;26158;-88
2022/07/22 14:26:45;;;;;;;3.90;3.60;;;;;;;;;;1892557;75;26269;-88
2022/07/22 14:29:12;;;;;;;3.25;3.12;;;;;;;;;;1879752;76;26232;-88
2022/07/22 14:31:39;;;;;;;3.62;3.37;;;;;;;;;;1891845;74;26194;-87
2022/07/22 14:34:07;;;;;;;3.92;3.67;;;;;;;;;;1882059;75;26261;-87
2022/07/22 14:36:34;;;;;;;3.52;3.33;;;;;;;;;;1882096;75;27068;-88
2022/07/22 14:39:01;;;;;;;3.58;3.30;;;;;;;;;;1878270;75;26187;-88
2022/07/22 14:41:29;;;;;;;3.85;3.58;;;;;;;;;;1873342;75;26639;-88
2022/07/22 14:43:56;;;;;;;3.75;3.45;;;;;;;;;;1889168;75;26267;-88
2022/07/22 14:46:23;;;;;;;3.67;3.47;;;;;;;;;;1885472;75;26171;-89
2022/07/22 14:48:55;;;;;;;3.25;3.05;;;;;;;;;;1895007;75;26185;-88